createdAt,value
2022-11-11T00:04:42.478Z,101876.13
2022-11-11T00:09:43.960Z,101885.28
2022-11-11T00:14:45.526Z,101878.41
2022-11-11T00:20:05.488Z,101870.69
2022-11-11T00:25:07.845Z,101865.63
2022-11-11T00:30:09.993Z,101873.16
2022-11-11T00:35:30.447Z,101876.53
2022-11-11T00:40:31.934Z,101868.88
2022-11-11T00:45:33.443Z,101884.78
2022-11-11T00:50:53.634Z,101876.25
2022-11-11T00:55:56.583Z,101888.00
2022-11-11T01:00:58.095Z,101898.94
2022-11-11T01:06:04.531Z,101905.69
2022-11-11T01:11:14.759Z,101912.41
2022-11-11T01:16:23.446Z,101918.41
2022-11-11T01:21:26.071Z,101920.88
2022-11-11T01:26:31.442Z,101919.84
2022-11-11T01:31:33.460Z,101912.19
2022-11-11T01:36:35.069Z,101911.41
2022-11-11T01:41:38.264Z,101907.22
2022-11-11T01:47:04.361Z,101915.66
2022-11-11T01:52:18.320Z,101912.16
2022-11-11T01:57:27.750Z,101921.25
2022-11-11T02:03:09.747Z,101927.97
2022-11-11T02:08:32.639Z,101911.13
2022-11-11T02:13:57.406Z,101922.19
2022-11-11T02:18:58.953Z,101923.31
2022-11-11T02:24:11.115Z,101926.88
2022-11-11T02:29:16.977Z,101922.84
2022-11-11T02:34:18.456Z,101915.38
2022-11-11T02:39:27.184Z,101912.06
2022-11-11T02:44:33.326Z,101909.41
2022-11-11T02:49:35.021Z,101909.47
2022-11-11T02:54:36.576Z,101903.63
2022-11-11T02:59:40.546Z,101899.56
2022-11-11T03:04:42.319Z,101907.13
2022-11-11T03:09:43.810Z,101911.19
2022-11-11T03:14:45.518Z,101908.63
2022-11-11T03:19:47.240Z,101908.53
2022-11-11T03:25:07.126Z,101912.66
2022-11-11T03:30:09.062Z,101912.66
2022-11-11T03:35:10.525Z,101915.38
2022-11-11T03:40:12.381Z,101925.72
2022-11-11T03:45:13.839Z,101939.50
2022-11-11T03:50:15.302Z,101955.50
2022-11-11T03:55:16.869Z,101953.00
2022-11-11T04:00:21.893Z,101968.25
2022-11-11T04:05:41.712Z,101977.50
2022-11-11T04:10:43.231Z,101981.78
2022-11-11T04:16:03.427Z,101984.41
2022-11-11T04:21:23.145Z,101997.88
2022-11-11T04:26:24.643Z,101995.38
2022-11-11T04:31:26.153Z,101992.88
2022-11-11T04:36:27.658Z,102001.38
2022-11-11T04:41:53.682Z,101998.97
2022-11-11T04:46:50.502Z,102005.72
2022-11-11T04:52:12.417Z,102015.06
2022-11-11T04:57:13.920Z,102021.00
2022-11-11T05:02:34.146Z,102017.66
2022-11-11T05:08:07.923Z,102030.31
2022-11-11T05:13:27.907Z,102043.78
2022-11-11T05:19:02.296Z,102047.13
2022-11-11T05:24:22.629Z,102051.47
2022-11-11T05:29:24.096Z,102058.97
2022-11-11T05:34:25.576Z,102072.56
2022-11-11T05:39:27.053Z,102070.19
2022-11-11T05:44:28.560Z,102069.97
2022-11-11T05:49:30.442Z,102075.75
2022-11-11T05:54:31.963Z,102079.91
2022-11-11T05:59:33.640Z,102085.72
2022-11-11T06:04:35.999Z,102083.06
2022-11-11T06:09:37.442Z,102075.50
2022-11-11T06:14:38.992Z,102074.59
2022-11-11T06:19:40.495Z,102074.38
2022-11-11T06:24:41.957Z,102082.06
2022-11-11T06:29:43.451Z,102083.06
2022-11-11T06:34:44.902Z,102089.84
2022-11-11T06:39:46.398Z,102096.00
2022-11-11T06:44:47.867Z,102098.66
2022-11-11T06:49:49.325Z,102106.25
2022-11-11T06:54:50.793Z,102102.06
2022-11-11T06:59:52.283Z,102098.72
2022-11-11T07:04:53.838Z,102103.00
2022-11-11T07:09:55.843Z,102104.75
2022-11-11T07:14:57.338Z,102112.50
2022-11-11T07:19:58.922Z,102111.50
2022-11-11T07:25:00.491Z,102116.53
2022-11-11T07:30:01.972Z,102115.75
2022-11-11T07:35:04.414Z,102110.13
2022-11-11T07:40:06.682Z,102113.84
2022-11-11T07:45:10.494Z,102111.31
2022-11-11T07:50:12.871Z,102113.91
2022-11-11T07:55:15.200Z,102119.19
2022-11-11T08:00:17.164Z,102115.22
2022-11-11T08:05:19.298Z,102114.50
2022-11-11T08:10:20.850Z,102123.81
2022-11-11T08:15:22.434Z,102132.34
2022-11-11T08:20:23.963Z,102132.41
2022-11-11T08:25:26.304Z,102130.81
2022-11-11T08:30:28.023Z,102128.34
2022-11-11T08:35:30.443Z,102129.22
2022-11-11T08:40:31.930Z,102130.16
2022-11-11T08:45:33.709Z,102126.03
2022-11-11T08:50:35.177Z,102121.91
2022-11-11T08:55:37.762Z,102124.41
2022-11-11T09:00:39.560Z,102124.53
2022-11-11T09:05:41.638Z,102120.44
2022-11-11T09:10:43.293Z,102119.69
2022-11-11T09:15:44.951Z,102116.34
2022-11-11T09:20:46.573Z,102129.09
2022-11-11T09:25:48.744Z,102130.78
2022-11-11T09:30:50.407Z,102129.09
2022-11-11T09:35:52.016Z,102127.41
2022-11-11T09:41:10.149Z,102119.78
2022-11-11T09:46:36.723Z,102119.75
2022-11-11T09:51:44.414Z,102118.91
2022-11-11T09:56:46.509Z,102118.94
2022-11-11T10:01:54.063Z,102120.66
2022-11-11T10:07:03.516Z,102118.09
2022-11-11T10:12:14.328Z,102108.72
2022-11-11T10:17:40.885Z,102112.13
2022-11-11T10:22:43.398Z,102118.91
2022-11-11T10:27:47.471Z,102126.53
2022-11-11T10:32:59.589Z,102133.34
2022-11-11T10:38:09.899Z,102139.31
2022-11-11T10:43:31.672Z,102122.31
2022-11-11T10:48:51.261Z,102114.66
2022-11-11T10:54:03.344Z,102120.56
2022-11-11T10:59:14.171Z,102115.53
2022-11-11T11:04:29.062Z,102108.75
2022-11-11T11:09:42.054Z,102113.00
2022-11-11T11:14:47.918Z,102108.78
2022-11-11T11:20:19.651Z,102106.94
2022-11-11T11:25:22.311Z,102096.69
2022-11-11T11:30:26.437Z,102080.50
2022-11-11T11:35:40.693Z,102083.25
2022-11-11T11:40:59.304Z,102072.25
2022-11-11T11:46:08.402Z,102067.13
2022-11-11T11:51:34.090Z,102061.94
2022-11-11T11:56:42.502Z,102049.03
2022-11-11T12:02:23.240Z,102049.84
2022-11-11T12:07:50.145Z,102054.03
2022-11-11T12:13:01.670Z,102058.19
2022-11-11T12:18:22.925Z,102071.78
2022-11-11T12:23:46.430Z,102064.31
2022-11-11T12:28:53.702Z,102060.06
2022-11-11T12:34:10.395Z,102053.25
2022-11-11T12:39:26.592Z,102056.63
2022-11-11T12:44:46.379Z,102060.75
2022-11-11T12:50:08.595Z,102051.34
2022-11-11T12:55:16.324Z,102052.19
2022-11-11T13:00:20.524Z,102053.09
2022-11-11T13:05:27.848Z,102063.22
2022-11-11T13:10:52.752Z,102067.50
2022-11-11T13:15:56.480Z,102073.63
2022-11-11T13:21:07.134Z,102074.69
2022-11-11T13:26:25.780Z,102080.75
2022-11-11T13:31:27.432Z,102075.66
2022-11-11T13:36:32.000Z,102077.34
2022-11-11T13:41:38.265Z,102068.88
2022-11-11T13:46:48.569Z,102070.56
2022-11-11T13:51:59.527Z,102064.63
2022-11-11T13:57:21.195Z,102065.47
2022-11-11T14:02:22.795Z,102065.47
2022-11-11T14:07:48.855Z,102068.03
2022-11-11T14:12:52.484Z,102063.78
2022-11-11T14:17:54.213Z,102078.19
2022-11-11T14:23:15.827Z,102081.59
2022-11-11T14:28:26.826Z,102076.50
2022-11-11T14:33:38.579Z,102081.56
2022-11-11T14:38:57.410Z,102072.25
2022-11-11T14:44:27.911Z,102073.94
2022-11-11T14:49:54.367Z,102064.63
2022-11-11T14:54:59.033Z,102063.78
2022-11-11T15:00:03.586Z,102056.97
2022-11-11T15:05:15.067Z,102056.97
2022-11-11T15:10:25.679Z,102071.38
2022-11-11T15:15:39.723Z,102065.41
2022-11-11T15:20:58.015Z,102067.03
2022-11-11T15:26:09.464Z,102069.53
2022-11-11T15:31:32.212Z,102072.09
2022-11-11T15:36:57.563Z,102073.00
2022-11-11T15:41:59.329Z,102079.78
2022-11-11T15:47:01.628Z,102066.28
2022-11-11T15:52:04.047Z,102064.59
2022-11-11T15:57:35.187Z,102061.22
2022-11-11T16:02:36.723Z,102053.59
2022-11-11T16:07:43.357Z,102058.69
2022-11-11T16:12:53.585Z,102065.47
2022-11-11T16:18:00.232Z,102062.06
2022-11-11T16:23:07.033Z,102062.94
2022-11-11T16:28:12.089Z,102071.41
2022-11-11T16:33:39.740Z,102073.91
2022-11-11T16:38:41.286Z,102083.94
2022-11-11T16:43:43.201Z,102078.81
2022-11-11T16:48:48.570Z,102078.72
2022-11-11T16:54:08.232Z,102072.78
2022-11-11T16:59:16.474Z,102062.66
2022-11-11T17:04:17.989Z,102059.34
2022-11-11T17:09:36.996Z,102068.72
2022-11-11T17:14:39.152Z,102060.25
2022-11-11T17:19:40.656Z,102054.34
2022-11-11T17:24:42.964Z,102055.19
2022-11-11T17:29:44.517Z,102053.56
2022-11-11T17:34:46.115Z,102059.44
2022-11-11T17:39:47.667Z,102068.72
2022-11-11T17:44:49.109Z,102068.72
2022-11-11T17:49:56.537Z,102064.47
2022-11-11T17:54:58.878Z,102065.34
2022-11-11T18:00:00.372Z,102061.97
2022-11-11T18:05:01.875Z,102057.75
2022-11-11T18:10:03.792Z,102069.56
2022-11-11T18:15:06.405Z,102076.34
2022-11-11T18:20:08.767Z,102080.56
2022-11-11T18:25:11.533Z,102086.47
2022-11-11T18:30:13.122Z,102089.06
2022-11-11T18:35:14.857Z,102083.97
2022-11-11T18:40:16.447Z,102082.25
2022-11-11T18:45:18.480Z,102087.22
2022-11-11T18:50:19.982Z,102079.59
2022-11-11T18:55:21.472Z,102080.41
2022-11-11T19:00:22.932Z,102078.72
2022-11-11T19:05:24.459Z,102084.69
2022-11-11T19:10:26.009Z,102080.44
2022-11-11T19:15:27.557Z,102081.31
2022-11-11T19:20:29.044Z,102073.69
2022-11-11T19:25:32.867Z,102081.25
2022-11-11T19:30:35.353Z,102090.44
2022-11-11T19:35:36.838Z,102087.03
2022-11-11T19:40:38.387Z,102086.22
2022-11-11T19:45:39.924Z,102088.81
2022-11-11T19:50:42.089Z,102093.13
2022-11-11T19:55:43.926Z,102095.63
2022-11-11T20:00:47.458Z,102099.03
2022-11-11T20:05:49.214Z,102099.78
2022-11-11T20:10:50.668Z,102103.97
2022-11-11T20:15:52.151Z,102103.84
2022-11-11T20:21:00.296Z,102112.25
2022-11-11T20:26:05.404Z,102119.94
2022-11-11T20:31:09.132Z,102123.41
2022-11-11T20:36:13.303Z,102113.28
2022-11-11T20:41:17.696Z,102120.94
2022-11-11T20:46:20.306Z,102124.34
2022-11-11T20:51:24.726Z,102131.94
2022-11-11T20:56:26.754Z,102119.22
2022-11-11T21:01:29.003Z,102121.72
2022-11-11T21:06:30.789Z,102118.34
2022-11-11T21:11:32.283Z,102122.31
2022-11-11T21:16:33.901Z,102113.75
2022-11-11T21:21:35.681Z,102112.91
2022-11-11T21:26:37.803Z,102122.09
2022-11-11T21:31:40.139Z,102123.78
2022-11-11T21:36:42.879Z,102111.84
2022-11-11T21:41:44.348Z,102103.94
2022-11-11T21:46:45.881Z,102099.63
2022-11-11T21:51:48.394Z,102096.25
2022-11-11T21:56:49.871Z,102090.97
2022-11-11T22:01:51.410Z,102089.16
2022-11-11T22:06:52.960Z,102092.53
2022-11-11T22:11:54.482Z,102078.88
2022-11-11T22:16:55.937Z,102078.72
2022-11-11T22:21:57.399Z,102090.28
2022-11-11T22:26:59.327Z,102086.00
2022-11-11T22:32:00.887Z,102089.41
2022-11-11T22:37:03.096Z,102086.94
2022-11-11T22:42:04.554Z,102080.03
2022-11-11T22:47:06.030Z,102079.06
2022-11-11T22:52:07.535Z,102082.56
2022-11-11T22:57:09.059Z,102081.69
2022-11-11T23:02:10.598Z,102086.56
2022-11-11T23:07:12.222Z,102084.00
2022-11-11T23:12:13.745Z,102072.09
2022-11-11T23:17:15.212Z,102077.25
2022-11-11T23:22:16.688Z,102079.94
2022-11-11T23:27:18.462Z,102081.84
2022-11-11T23:32:19.900Z,102078.66
2022-11-11T23:37:21.328Z,102074.50
2022-11-11T23:42:22.790Z,102077.19
2022-11-11T23:47:24.222Z,102089.16
2022-11-11T23:52:25.661Z,102091.75
2022-11-11T23:57:27.227Z,102087.56
